Time;durP1;ratioP1;P1;durP2;ratioP2;P2;SDS_P1;SDS_P2;PMS_P1;PMS_P2;Temp;Humidity;BMP_temperature;BMP_pressure;BME280_temperature;BME280_humidity;BME280_pressure;Samples;Min_cycle;Max_cycle;Signal;HPM_P1;HPM_P2
2022/10/09 00:01:27;;;;;;;1999.90;999.90;;;10.10;1.00;;;;;;5054649;28;20037;-79
2022/10/09 00:03:55;;;;;;;1999.90;999.90;;;10.20;99.90;;;;;;5037355;28;20116;-79
2022/10/09 00:06:23;;;;;;;;;;;10.30;11.60;;;;;;5054360;28;20095;-80
2022/10/09 00:08:49;;;;;;;1999.90;999.90;;;10.30;1.00;;;;;;5070645;28;19974;-79
2022/10/09 00:11:18;;;;;;;1999.90;999.90;;;10.50;1.00;;;;;;5070555;28;20048;-84
2022/10/09 00:13:44;;;;;;;1999.90;999.90;;;10.50;1.00;;;;;;5053555;28;20568;-79
2022/10/09 00:16:12;;;;;;;1999.90;999.90;;;11.90;1.00;;;;;;5034192;28;20133;-79
2022/10/09 00:18:37;;;;;;;;;;;10.40;31.70;;;;;;5015169;28;20053;-80
2022/10/09 00:21:05;;;;;;;1999.90;999.90;;;10.30;95.50;;;;;;5015060;28;19922;-79
2022/10/09 00:23:31;;;;;;;1999.90;999.90;;;10.30;1.00;;;;;;5013639;28;20521;-79
2022/10/09 00:25:59;;;;;;;1999.90;999.90;;;10.20;99.90;;;;;;5013775;28;20050;-79
2022/10/09 00:28:26;;;;;;;;;;;10.10;99.90;;;;;;5014662;28;20042;-79
2022/10/09 00:30:52;;;;;;;1999.90;999.90;;;10.20;1.00;;;;;;5047138;28;19922;-79
2022/10/09 00:33:18;;;;;;;1999.90;999.90;;;10.50;1.00;;;;;;5013616;28;20124;-79
2022/10/09 00:35:44;;;;;;;1999.90;999.90;;;10.00;1.00;;;;;;5014248;28;20482;-80
2022/10/09 00:38:10;;;;;;;1999.90;999.90;;;10.90;26.80;;;;;;5013855;28;20045;-80
2022/10/09 00:40:36;;;;;;;1999.90;999.90;;;10.10;1.00;;;;;;5014523;28;20057;-79
2022/10/09 00:43:03;;;;;;;1999.90;999.90;;;10.50;63.30;;;;;;5014494;28;20077;-79
2022/10/09 00:45:30;;;;;;;1999.90;999.90;;;10.10;99.90;;;;;;5014150;28;20478;-79
2022/10/09 00:48:02;;;;;;;1999.90;999.90;;;10.10;99.90;;;;;;5013454;28;20049;-79
2022/10/09 00:50:40;;;;;;;1999.90;999.90;;;11.60;99.90;;;;;;5014452;28;20041;-79
2022/10/09 00:53:08;;;;;;;1999.90;999.90;;;10.10;99.90;;;;;;5016577;28;20085;-80
2022/10/09 00:55:36;;;;;;;1999.90;999.90;;;10.10;99.90;;;;;;5032620;28;20065;-79
2022/10/09 00:58:02;;;;;;;1999.90;999.90;;;11.60;99.90;;;;;;5014619;28;20103;-80
2022/10/09 01:00:28;;;;;;;1999.90;999.90;;;10.00;99.90;;;;;;5014128;28;20049;-79
2022/10/09 01:02:54;;;;;;;1999.90;999.90;;;10.10;99.90;;;;;;5014263;28;20053;-79
2022/10/09 01:05:29;;;;;;;1999.90;999.90;;;10.00;99.90;;;;;;5014365;28;20050;-79
2022/10/09 01:08:04;;;;;;;1999.90;999.90;;;10.30;93.40;;;;;;5013169;28;20371;-79
2022/10/09 01:10:43;;;;;;;1999.90;999.90;;;10.20;99.90;;;;;;5013615;28;20046;-79
2022/10/09 01:13:18;;;;;;;1999.90;999.90;;;9.80;79.20;;;;;;5029010;28;20050;-79
2022/10/09 01:16:16;;;;;;;1999.90;999.90;;;10.50;91.20;;;;;;5037831;28;20059;-80
2022/10/09 01:18:41;;;;;;;1999.90;999.90;;;9.90;99.90;;;;;;5050540;28;20049;-79
2022/10/09 01:21:17;;;;;;;1999.90;999.90;;;10.80;40.40;;;;;;5053619;28;20059;-79
2022/10/09 01:24:04;;;;;;;1999.90;999.90;;;9.80;99.90;;;;;;5035600;28;20048;-79
2022/10/09 01:26:52;;;;;;;1999.90;999.90;;;9.80;99.90;;;;;;5052836;28;20076;-78
2022/10/09 01:29:20;;;;;;;1999.90;999.90;;;9.70;90.80;;;;;;5035892;28;20041;-79
2022/10/09 01:31:48;;;;;;;1999.90;999.90;;;9.80;39.10;;;;;;5052978;28;20052;-79
2022/10/09 01:34:15;;;;;;;;;;;11.00;34.70;;;;;;5069440;28;20083;-79
2022/10/09 01:36:43;;;;;;;1999.90;999.90;;;9.70;6.10;;;;;;5052864;28;19967;-79
2022/10/09 01:39:14;;;;;;;1999.90;999.90;;;9.60;1.00;;;;;;5053205;28;20056;-79
2022/10/09 01:41:40;;;;;;;1999.90;999.90;;;9.60;1.00;;;;;;5052571;28;20053;-79
2022/10/09 01:44:22;;;;;;;1999.90;999.90;;;10.60;1.00;;;;;;5053004;28;20444;-79
2022/10/09 01:46:48;;;;;;;1999.90;999.90;;;9.70;1.00;;;;;;5052792;28;20132;-79
2022/10/09 01:49:31;;;;;;;1999.90;999.90;;;9.90;99.90;;;;;;5052995;28;20124;-79
2022/10/09 01:52:01;;;;;;;1999.90;999.90;;;9.50;99.90;;;;;;5052993;28;20063;-80
2022/10/09 01:54:49;;;;;;;1999.90;999.90;;;11.00;99.90;;;;;;5053408;28;20044;-88
2022/10/09 01:57:19;;;;;;;1999.90;999.90;;;9.40;99.90;;;;;;5052473;28;20489;-79
2022/10/09 01:59:46;;;;;;;1999.90;999.90;;;9.40;99.90;;;;;;5052946;28;20052;-79
2022/10/09 02:02:12;;;;;;;1999.90;999.90;;;9.60;99.90;;;;;;5051901;28;20059;-78
2022/10/09 02:04:41;;;;;;;1999.90;999.90;;;10.20;99.90;;;;;;5052862;28;20189;-79
2022/10/09 02:07:06;;;;;;;;;;;9.20;99.90;;;;;;5052395;28;20048;-79
2022/10/09 02:09:33;;;;;;;1999.90;999.90;;;9.30;99.90;;;;;;5052814;28;20385;-79
2022/10/09 02:12:05;;;;;;;1999.90;999.90;;;9.10;99.90;;;;;;5052326;28;20421;-79
2022/10/09 02:14:32;;;;;;;1999.90;999.90;;;11.10;99.90;;;;;;5052260;28;20045;-78
2022/10/09 02:17:04;;;;;;;1999.90;999.90;;;9.50;99.90;;;;;;5052605;28;20048;-78
2022/10/09 02:19:39;;;;;;;1999.90;999.90;;;9.30;99.90;;;;;;5052419;28;20465;-89
2022/10/09 02:22:17;;;;;;;1999.90;999.90;;;9.30;99.90;;;;;;5052525;28;20045;-79
2022/10/09 02:24:44;;;;;;;1999.90;999.90;;;9.40;99.90;;;;;;5052012;28;20481;-79
2022/10/09 02:27:12;;;;;;;1999.90;999.90;;;11.00;99.90;;;;;;5052144;28;20037;-80
2022/10/09 02:29:42;;;;;;;1999.90;999.90;;;9.50;1.00;;;;;;5051463;28;20484;-79
2022/10/09 02:32:09;;;;;;;1999.90;999.90;;;9.50;1.00;;;;;;5052499;28;20052;-79
2022/10/09 02:34:34;;;;;;;1999.90;999.90;;;9.50;1.00;;;;;;5052194;28;20049;-79
2022/10/09 02:37:00;;;;;;;1999.90;999.90;;;11.10;71.50;;;;;;5052479;28;20063;-79
2022/10/09 02:39:26;;;;;;;1999.90;999.90;;;9.50;1.00;;;;;;5034842;28;20048;-79
2022/10/09 02:41:52;;;;;;;1999.90;999.90;;;9.40;99.90;;;;;;5051713;28;20724;-79
2022/10/09 02:44:18;;;;;;;1999.90;999.90;;;10.10;99.90;;;;;;5052411;28;20124;-79
2022/10/09 02:46:43;;;;;;;1999.90;999.90;;;11.10;99.90;;;;;;5051996;28;20041;-79
2022/10/09 02:49:09;;;;;;;1999.90;999.90;;;10.60;99.90;;;;;;5052402;28;20144;-79
2022/10/09 02:51:35;;;;;;;1999.90;999.90;;;10.60;99.90;;;;;;5034222;28;20045;-79
2022/10/09 02:54:00;;;;;;;1999.90;999.90;;;11.00;99.90;;;;;;5052311;28;20080;-79
2022/10/09 02:56:26;;;;;;;1999.90;999.90;;;10.20;99.90;;;;;;5050746;28;20087;-79
2022/10/09 02:58:52;;;;;;;1999.90;999.90;;;9.30;99.90;;;;;;5050932;28;20120;-79
2022/10/09 03:01:19;;;;;;;1999.90;999.90;;;9.30;99.90;;;;;;5052233;28;20044;-80
2022/10/09 03:03:45;;;;;;;1999.90;999.90;;;10.50;99.90;;;;;;5067744;28;20055;-79
2022/10/09 03:06:22;;;;;;;1999.90;999.90;;;10.40;99.90;;;;;;5067879;28;20045;-79
2022/10/09 03:08:49;;;;;;;1999.90;999.90;;;9.60;99.90;;;;;;5051970;28;20045;-79
2022/10/09 03:11:17;;;;;;;1999.90;999.90;;;9.20;99.90;;;;;;5018119;28;20103;-82
2022/10/09 03:13:43;;;;;;;1999.90;999.90;;;8.70;99.90;;;;;;5051929;28;20049;-79
2022/10/09 03:16:11;;;;;;;1999.90;999.90;;;9.70;99.90;;;;;;5051615;28;20057;-79
2022/10/09 03:18:38;;;;;;;1999.90;999.90;;;9.30;99.90;;;;;;5033937;28;20049;-80
2022/10/09 03:21:08;;;;;;;1999.90;999.90;;;9.40;99.90;;;;;;5052125;28;20106;-79
2022/10/09 03:23:34;;;;;;;1999.90;999.90;;;9.30;99.90;;;;;;5034577;28;20485;-78
2022/10/09 03:26:03;;;;;;;1999.90;999.90;;;9.30;99.90;;;;;;5051650;28;20041;-79
2022/10/09 03:28:29;;;;;;;1999.90;999.90;;;9.30;99.90;;;;;;5051608;28;20049;-79
2022/10/09 03:30:54;;;;;;;1999.90;999.90;;;11.20;99.90;;;;;;5067255;28;20132;-79
2022/10/09 03:33:21;;;;;;;1999.90;999.90;;;9.30;99.90;;;;;;5051900;28;20128;-78
2022/10/09 03:35:48;;;;;;;1999.90;999.90;;;9.30;99.90;;;;;;5033798;28;20049;-80
2022/10/09 03:38:14;;;;;;;1999.90;999.90;;;9.20;90.20;;;;;;5067291;28;20084;-79
2022/10/09 03:40:40;;;;;;;1999.90;999.90;;;9.70;80.10;;;;;;5067299;28;20041;-79
2022/10/09 03:43:06;;;;;;;1999.90;999.90;;;9.10;50.20;;;;;;5054209;28;20055;-79
2022/10/09 03:45:32;;;;;;;1999.90;999.90;;;9.00;40.50;;;;;;5071139;28;20045;-79
2022/10/09 03:47:57;;;;;;;1999.90;999.90;;;9.90;15.90;;;;;;5054931;28;20049;-80
2022/10/09 03:50:23;;;;;;;1999.90;999.90;;;9.00;3.40;;;;;;5055368;28;20080;-80
2022/10/09 03:52:49;;;;;;;1999.90;999.90;;;9.10;33.50;;;;;;5070267;28;20045;-79
2022/10/09 03:55:15;;;;;;;1999.90;999.90;;;10.20;99.90;;;;;;5055251;28;20047;-79
2022/10/09 03:57:40;;;;;;;1999.90;999.90;;;10.90;99.90;;;;;;5054388;28;20048;-83
2022/10/09 04:00:07;;;;;;;1999.90;999.90;;;10.10;69.50;;;;;;5070830;28;20041;-79
2022/10/09 04:02:33;;;;;;;1999.90;999.90;;;9.10;12.20;;;;;;5055063;28;20094;-79
2022/10/09 04:04:59;;;;;;;1999.90;999.90;;;10.20;1.00;;;;;;5054532;28;20555;-82
2022/10/09 04:07:25;;;;;;;1999.90;999.90;;;10.80;1.00;;;;;;5054944;28;20037;-79
2022/10/09 04:09:51;;;;;;;1999.90;999.90;;;9.90;1.00;;;;;;5036881;28;20079;-81
2022/10/09 04:12:16;;;;;;;1999.90;999.90;;;9.10;1.00;;;;;;5054484;28;20056;-79
2022/10/09 04:14:42;;;;;;;1999.90;999.90;;;10.50;1.00;;;;;;5054362;28;20057;-86
2022/10/09 04:17:08;;;;;;;1999.90;999.90;;;9.00;1.00;;;;;;5053629;28;20045;-79
2022/10/09 04:19:35;;;;;;;1999.90;999.90;;;10.10;1.00;;;;;;5054776;28;20041;-79
2022/10/09 04:22:01;;;;;;;1999.90;999.90;;;9.20;1.00;;;;;;5036729;28;20064;-79
2022/10/09 04:24:27;;;;;;;1999.90;999.90;;;10.10;1.00;;;;;;5054581;28;20084;-79
2022/10/09 04:26:52;;;;;;;1999.90;999.90;;;8.80;1.00;;;;;;5054018;28;20554;-79
2022/10/09 04:29:18;;;;;;;1999.90;999.90;;;9.00;1.00;;;;;;5054659;28;20045;-79
2022/10/09 04:31:44;;;;;;;1999.90;999.90;;;8.80;1.00;;;;;;5054250;28;20041;-83
2022/10/09 04:34:10;;;;;;;1999.90;999.90;;;10.00;1.00;;;;;;5054506;28;20052;-79
2022/10/09 04:36:35;;;;;;;1999.90;999.90;;;9.10;1.00;;;;;;5054344;28;20041;-79
2022/10/09 04:39:01;;;;;;;1999.90;999.90;;;10.60;1.00;;;;;;5054021;28;20472;-79
2022/10/09 04:41:27;;;;;;;1999.90;999.90;;;8.80;1.00;;;;;;5054010;28;20116;-79
2022/10/09 04:43:55;;;;;;;1999.90;999.90;;;8.80;1.00;;;;;;5069627;28;20045;-80
2022/10/09 04:46:21;;;;;;;1999.90;999.90;;;8.80;1.00;;;;;;5054298;28;20109;-79
2022/10/09 04:48:47;;;;;;;1999.90;999.90;;;9.40;1.00;;;;;;5053822;28;20052;-79
2022/10/09 04:51:15;;;;;;;1999.90;999.90;;;8.90;1.00;;;;;;5054266;28;20465;-79
2022/10/09 04:53:41;;;;;;;1999.90;999.90;;;8.80;1.00;;;;;;5053767;28;20071;-79
2022/10/09 04:56:12;;;;;;;1999.90;999.90;;;9.80;1.00;;;;;;5035912;28;20033;-79
2022/10/09 04:58:39;;;;;;;1999.90;999.90;;;8.80;1.00;;;;;;5019577;28;20053;-79
2022/10/09 05:01:11;;;;;;;1999.90;999.90;;;8.60;1.00;;;;;;5036238;28;20057;-79
2022/10/09 05:03:38;;;;;;;1999.90;999.90;;;10.50;1.00;;;;;;5069102;28;20570;-79
2022/10/09 05:06:06;;;;;;;1999.90;999.90;;;10.30;1.00;;;;;;5053588;28;20041;-79
2022/10/09 05:08:32;;;;;;;1999.90;999.90;;;8.90;2.20;;;;;;5053695;28;20052;-79
2022/10/09 05:10:59;;;;;;;1999.90;999.90;;;9.80;1.00;;;;;;5053487;28;20098;-79
2022/10/09 05:13:29;;;;;;;1999.90;999.90;;;9.00;1.00;;;;;;5068834;28;20049;-79
2022/10/09 05:15:55;;;;;;;1999.90;999.90;;;9.00;1.00;;;;;;5035196;28;20049;-79
2022/10/09 05:18:20;;;;;;;1999.90;999.90;;;9.90;1.00;;;;;;5069286;28;20231;-79
2022/10/09 05:20:46;;;;;;;1999.90;999.90;;;9.20;1.00;;;;;;5053702;28;20051;-82
2022/10/09 05:23:12;;;;;;;1999.90;999.90;;;8.90;1.00;;;;;;5068876;28;20388;-80
2022/10/09 05:25:37;;;;;;;1999.90;999.90;;;10.40;1.00;;;;;;5053603;28;20057;-79
2022/10/09 05:28:05;;;;;;;1999.90;999.90;;;8.90;1.00;;;;;;5052758;28;20049;-79
2022/10/09 05:30:30;;;;;;;1999.90;999.90;;;9.50;1.00;;;;;;5053545;28;20049;-79
2022/10/09 05:32:56;;;;;;;1999.90;999.90;;;9.20;99.90;;;;;;5053007;28;20735;-79
2022/10/09 05:35:22;;;;;;;1999.90;999.90;;;8.80;1.00;;;;;;5068842;28;20397;-79
2022/10/09 05:37:47;;;;;;;1999.90;999.90;;;9.30;99.90;;;;;;5053221;28;20055;-81
2022/10/09 05:40:13;;;;;;;1999.90;999.90;;;8.90;99.90;;;;;;5052937;28;20080;-81
2022/10/09 05:42:39;;;;;;;1999.90;999.90;;;8.70;99.90;;;;;;5068567;28;20044;-85
2022/10/09 05:45:05;;;;;;;1999.90;999.90;;;9.30;99.90;;;;;;5053011;28;20482;-79
2022/10/09 05:47:31;;;;;;;1999.90;999.90;;;8.60;99.90;;;;;;5053167;28;20040;-79
2022/10/09 05:49:56;;;;;;;1999.90;999.90;;;8.70;99.90;;;;;;5034920;28;20136;-80
2022/10/09 05:52:22;;;;;;;1999.90;999.90;;;8.80;99.90;;;;;;5053218;28;20436;-79
2022/10/09 05:54:48;;;;;;;1999.90;999.90;;;10.00;99.90;;;;;;5068695;28;20462;-79
2022/10/09 05:57:14;;;;;;;1999.90;999.90;;;8.80;99.90;;;;;;5068068;28;20389;-79
2022/10/09 05:59:40;;;;;;;1999.90;999.90;;;8.70;99.90;;;;;;5068655;28;20049;-81
2022/10/09 06:02:07;;;;;;;1999.90;999.90;;;8.70;99.90;;;;;;5052588;28;20045;-79
2022/10/09 06:04:33;;;;;;;1999.90;999.90;;;8.60;99.90;;;;;;5068025;28;20397;-79
2022/10/09 06:06:59;;;;;;;1999.90;999.90;;;10.60;99.90;;;;;;5052858;28;20048;-79
2022/10/09 06:09:25;;;;;;;1999.90;999.90;;;9.80;99.90;;;;;;5051635;28;20485;-79
2022/10/09 06:11:52;;;;;;;1999.90;999.90;;;8.50;99.90;;;;;;5051234;28;20063;-82
2022/10/09 06:14:20;;;;;;;1999.90;999.90;;;8.60;99.90;;;;;;5052825;28;20048;-79
2022/10/09 06:16:46;;;;;;;1999.90;999.90;;;9.50;99.90;;;;;;5034706;28;20053;-79
2022/10/09 06:19:14;;;;;;;1999.90;999.90;;;9.60;99.90;;;;;;5052407;28;20191;-80
2022/10/09 06:21:41;;;;;;;1999.90;999.90;;;8.60;99.90;;;;;;5052635;28;20048;-79
2022/10/09 06:24:07;;;;;;;1999.90;999.90;;;8.70;1.00;;;;;;5052330;28;20510;-79
2022/10/09 06:26:33;;;;;;;1999.90;999.90;;;9.80;1.00;;;;;;5034766;28;20481;-80
2022/10/09 06:29:01;;;;;;;1999.90;999.90;;;8.90;1.00;;;;;;5067511;28;20485;-80
2022/10/09 06:31:29;;;;;;;1999.90;999.90;;;9.00;1.00;;;;;;5052998;28;20128;-79
2022/10/09 06:33:59;;;;;;;1999.90;999.90;;;9.90;1.00;;;;;;5052715;28;20041;-80
2022/10/09 06:36:31;;;;;;;1999.90;999.90;;;9.80;1.00;;;;;;5053482;28;20091;-79
2022/10/09 06:39:00;;;;;;;1999.90;999.90;;;10.30;1.90;;;;;;5052690;28;20510;-79
2022/10/09 06:41:27;;;;;;;1999.90;999.90;;;9.40;99.90;;;;;;5053025;28;20476;-80
2022/10/09 06:43:59;;;;;;;1999.90;999.90;;;9.50;61.10;;;;;;5055947;28;20087;-80
2022/10/09 06:46:31;;;;;;;1999.90;999.90;;;9.50;8.70;;;;;;5055110;28;20045;-81
2022/10/09 06:48:58;;;;;;;1999.90;999.90;;;9.60;1.00;;;;;;5052719;28;20049;-80
2022/10/09 06:51:26;;;;;;;1999.90;999.90;;;9.70;1.00;;;;;;5052483;28;20110;-79
2022/10/09 06:53:53;;;;;;;1999.90;999.90;;;11.10;1.00;;;;;;5052438;28;20060;-79
2022/10/09 06:56:21;;;;;;;1999.90;999.90;;;9.70;1.00;;;;;;5051751;28;20053;-86
2022/10/09 06:58:46;;;;;;;1999.90;999.90;;;9.70;1.00;;;;;;5052385;28;20048;-79
2022/10/09 07:01:23;;;;;;;1999.90;999.90;;;9.90;1.00;;;;;;5034170;28;20040;-79
2022/10/09 07:03:53;;;;;;;1999.90;999.90;;;9.90;1.00;;;;;;5052291;28;20127;-79
2022/10/09 07:06:21;;;;;;;1999.90;999.90;;;11.30;1.00;;;;;;5051835;28;20099;-79
2022/10/09 07:08:48;;;;;;;;;;;10.00;1.00;;;;;;5052350;28;20615;-79
2022/10/09 07:11:21;;;;;;;1999.90;999.90;;;10.00;1.00;;;;;;5051917;28;19921;-87
2022/10/09 07:13:53;;;;;;;1999.90;999.90;;;10.20;1.00;;;;;;5034735;28;20544;-80
2022/10/09 07:16:21;;;;;;;1999.90;999.90;;;10.20;1.00;;;;;;5053405;28;20053;-79
2022/10/09 07:18:47;;;;;;;;;;;11.30;1.00;;;;;;5038825;28;20056;-79
2022/10/09 07:21:13;;;;;;;1999.90;999.90;;;11.10;1.00;;;;;;5055633;28;20364;-79
2022/10/09 07:23:38;;;;;;;1999.90;999.90;;;10.30;1.00;;;;;;5055721;28;20045;-80
2022/10/09 07:26:11;;;;;;;1999.90;999.90;;;10.70;1.00;;;;;;5054335;28;20041;-79
2022/10/09 07:28:37;;;;;;;1999.90;999.90;;;10.40;1.00;;;;;;5037637;28;20053;-79
2022/10/09 07:31:04;;;;;;;1999.90;999.90;;;10.40;1.00;;;;;;5055368;28;20052;-79
2022/10/09 07:33:29;;;;;;;1999.90;999.90;;;10.50;1.00;;;;;;5021484;28;20057;-80
2022/10/09 07:35:56;;;;;;;1999.90;999.90;;;10.50;1.00;;;;;;5054391;28;20389;-79
2022/10/09 07:38:23;;;;;;;1999.90;999.90;;;10.70;99.90;;;;;;5070800;28;20049;-79
2022/10/09 07:40:50;;;;;;;1999.90;999.90;;;10.70;99.90;;;;;;5055555;28;20045;-79
2022/10/09 07:43:16;;;;;;;1999.90;999.90;;;10.80;99.90;;;;;;5054859;28;20060;-79
2022/10/09 07:45:42;;;;;;;1999.90;999.90;;;11.80;99.90;;;;;;5037928;28;20393;-79
2022/10/09 07:48:07;;;;;;;1999.90;999.90;;;10.90;99.90;;;;;;5054990;28;20191;-79
2022/10/09 07:50:33;;;;;;;1999.90;999.90;;;11.00;99.90;;;;;;5071142;28;20136;-79
2022/10/09 07:52:59;;;;;;;1999.90;999.90;;;11.70;99.90;;;;;;5055210;28;20102;-79
2022/10/09 07:55:25;;;;;;;1999.90;999.90;;;11.10;87.50;;;;;;5037411;28;20501;-79
2022/10/09 07:57:50;;;;;;;1999.90;999.90;;;11.10;1.00;;;;;;5036997;28;20506;-79
2022/10/09 08:00:16;;;;;;;1999.90;999.90;;;11.10;99.90;;;;;;5055102;28;20053;-79
2022/10/09 08:02:42;;;;;;;1999.90;999.90;;;11.20;99.90;;;;;;5037388;28;20048;-81
2022/10/09 08:05:08;;;;;;;1999.90;999.90;;;11.30;99.90;;;;;;5037047;28;20369;-79
2022/10/09 08:07:34;;;;;;;1999.90;999.90;;;11.30;99.90;;;;;;5054956;28;20052;-79
2022/10/09 08:10:00;;;;;;;1999.90;999.90;;;11.40;99.90;;;;;;5054923;28;20048;-79
2022/10/09 08:12:25;;;;;;;1999.90;999.90;;;11.60;99.90;;;;;;5070000;28;20110;-79
2022/10/09 08:14:51;;;;;;;1999.90;999.90;;;11.60;99.90;;;;;;5055004;28;20071;-79
2022/10/09 08:17:17;;;;;;;1999.90;999.90;;;11.60;99.90;;;;;;5036751;28;20045;-79
2022/10/09 08:19:42;;;;;;;1999.90;999.90;;;11.70;99.90;;;;;;5053527;28;20143;-79
2022/10/09 08:22:08;;;;;;;1999.90;999.90;;;11.80;99.90;;;;;;5054013;28;20135;-79
2022/10/09 08:24:34;;;;;;;1999.90;999.90;;;12.60;99.90;;;;;;5053543;28;20057;-82
2022/10/09 08:26:59;;;;;;;1999.90;999.90;;;12.10;99.90;;;;;;5053939;28;20041;-80
2022/10/09 08:29:25;;;;;;;1999.90;999.90;;;12.80;99.90;;;;;;5069539;28;20052;-79
2022/10/09 08:31:51;;;;;;;1999.90;999.90;;;14.00;1.00;;;;;;5054521;28;20060;-80
2022/10/09 08:34:17;;;;;;;1999.90;999.90;;;15.00;99.90;;;;;;5054232;28;20056;-80
2022/10/09 08:36:43;;;;;;;1999.90;999.90;;;15.90;99.90;;;;;;5054343;28;20045;-79
2022/10/09 08:39:09;;;;;;;1999.90;999.90;;;16.70;99.90;;;;;;5036517;28;20056;-79
2022/10/09 08:41:42;;;;;;;1999.90;999.90;;;17.60;99.90;;;;;;5069778;28;20053;-79
2022/10/09 08:44:12;;;;;;;1999.90;999.90;;;18.30;8.60;;;;;;5053992;28;20090;-79
2022/10/09 08:46:50;;;;;;;1999.90;999.90;;;19.00;1.00;;;;;;5054241;28;20130;-80
2022/10/09 08:49:41;;;;;;;1999.90;999.90;;;20.10;1.00;;;;;;5054146;28;20052;-80
2022/10/09 08:52:26;;;;;;;1999.90;999.90;;;20.40;99.90;;;;;;5053640;28;20053;-84
2022/10/09 08:54:56;;;;;;;1999.90;999.90;;;20.40;99.90;;;;;;5054211;28;20393;-80
2022/10/09 08:57:22;;;;;;;1999.90;999.90;;;20.40;99.90;;;;;;5053658;28;20500;-80
2022/10/09 08:59:48;;;;;;;1999.90;999.90;;;21.30;99.90;;;;;;5054123;28;20084;-80
2022/10/09 09:02:19;;;;;;;1999.90;999.90;;;21.30;99.90;;;;;;5069286;28;20083;-80
2022/10/09 09:04:56;;;;;;;1999.90;999.90;;;21.20;99.90;;;;;;5053949;28;20045;-79
2022/10/09 09:08:23;;;;;;;1999.90;999.90;;;21.20;99.90;;;;;;5053858;28;20070;-79
2022/10/09 09:10:56;;;;;;;1999.90;999.90;;;21.60;99.90;;;;;;5030439;28;20057;-81
2022/10/09 09:13:36;;;;;;;1999.90;999.90;;;20.60;99.90;;;;;;5068822;28;20139;-80
2022/10/09 09:16:37;;;;;;;1999.90;817.95;;;20.80;99.90;;;;;;5053639;28;20053;-79
2022/10/09 09:19:40;;;;;;;1923.60;781.97;;;21.20;99.90;;;;;;5069249;28;20107;-79
2022/10/09 09:22:13;;;;;;;1948.75;798.30;;;21.20;99.90;;;;;;5053521;28;20064;-80
2022/10/09 09:24:50;;;;;;;1999.90;999.90;;;21.30;99.90;;;;;;5053579;28;20044;-79
2022/10/09 09:27:19;;;;;;;1999.90;999.90;;;21.20;99.90;;;;;;5035329;28;20083;-80
2022/10/09 09:29:54;;;;;;;1999.90;835.67;;;21.20;99.90;;;;;;5053426;28;20469;-79
2022/10/09 09:32:22;;;;;;;1999.90;999.90;;;20.50;99.90;;;;;;5053175;28;20394;-80
2022/10/09 09:34:48;;;;;;;1999.90;999.90;;;20.00;99.90;;;;;;5068980;28;20045;-80
2022/10/09 09:37:14;;;;;;;1999.90;999.90;;;19.10;99.90;;;;;;5035356;28;20037;-80
2022/10/09 09:39:41;;;;;;;1999.90;999.90;;;18.20;99.90;;;;;;5034796;28;20099;-80
2022/10/09 09:42:16;;;;;;;1999.90;999.90;;;17.90;99.90;;;;;;5068480;28;20551;-81
2022/10/09 09:44:53;;;;;;;1999.90;999.90;;;17.20;99.90;;;;;;5053348;28;20103;-80
2022/10/09 09:47:26;;;;;;;1999.90;999.90;;;16.80;99.90;;;;;;5052070;28;20045;-80
2022/10/09 09:49:59;;;;;;;1999.90;999.90;;;16.80;99.90;;;;;;5053293;28;20131;-82
2022/10/09 09:52:30;;;;;;;1999.90;999.90;;;16.70;99.90;;;;;;5035311;28;20485;-81
2022/10/09 09:54:57;;;;;;;1999.90;999.90;;;16.80;99.90;;;;;;5053067;28;20373;-80
2022/10/09 09:57:43;;;;;;;1999.90;999.90;;;16.80;99.90;;;;;;5052094;28;20558;-81
2022/10/09 10:00:15;;;;;;;1999.90;999.90;;;16.60;99.90;;;;;;5068640;28;20056;-80
2022/10/09 10:02:41;;;;;;;1999.90;999.90;;;16.40;99.90;;;;;;5052849;28;20048;-80
2022/10/09 10:05:23;;;;;;;1999.90;999.90;;;16.40;99.90;;;;;;5052820;28;20118;-80
2022/10/09 10:07:50;;;;;;;1999.90;999.90;;;16.40;99.90;;;;;;5052442;28;20513;-83
2022/10/09 10:10:19;;;;;;;1999.90;999.90;;;16.30;99.90;;;;;;5051283;28;20049;-79
2022/10/09 10:12:53;;;;;;;1999.90;999.90;;;16.20;99.90;;;;;;5052275;28;20045;-81
2022/10/09 10:15:31;;;;;;;1999.90;999.90;;;16.20;99.90;;;;;;5052262;28;20473;-80
2022/10/09 10:18:10;;;;;;;;;;;16.20;99.90;;;;;;5052985;28;20099;-81
2022/10/09 10:20:45;;;;;;;1999.90;999.90;;;16.20;99.90;;;;;;5052523;28;19975;-80
2022/10/09 10:23:34;;;;;;;1999.90;999.90;;;16.30;99.90;;;;;;5052564;28;20041;-80
2022/10/09 10:26:15;;;;;;;1999.90;999.90;;;16.90;99.90;;;;;;5068309;28;20108;-80
2022/10/09 10:29:15;;;;;;;1999.90;999.90;;;17.00;99.90;;;;;;5018399;28;20053;-83
2022/10/09 10:31:48;;;;;;;1999.90;999.90;;;17.10;99.90;;;;;;5043033;28;20118;-80
2022/10/09 10:34:36;;;;;;;1999.90;999.90;;;17.90;99.90;;;;;;5052551;28;20132;-80
2022/10/09 10:37:25;;;;;;;1999.90;999.90;;;18.50;99.90;;;;;;5051427;28;20171;-79
2022/10/09 10:40:04;;;;;;;1999.90;999.90;;;18.10;99.90;;;;;;5068206;28;20491;-82
2022/10/09 10:42:52;;;;;;;1999.90;999.90;;;18.20;99.90;;;;;;5051738;28;20051;-79
2022/10/09 10:45:32;;;;;;;1999.90;999.90;;;18.00;99.90;;;;;;5052107;28;20607;-83
2022/10/09 10:48:01;;;;;;;1999.90;999.90;;;18.90;99.90;;;;;;5068025;28;20049;-81
2022/10/09 10:50:36;;;;;;;1999.90;999.90;;;19.80;99.90;;;;;;5034797;28;20044;-81
2022/10/09 10:53:19;;;;;;;1999.90;824.97;;;20.50;99.90;;;;;;5056741;28;20052;-80
2022/10/09 10:55:57;;;;;;;1999.90;999.90;;;20.80;99.90;;;;;;5056468;28;20056;-80
2022/10/09 10:58:24;;;;;;;1999.90;999.90;;;21.20;99.90;;;;;;5071417;28;20045;-80
2022/10/09 11:01:08;;;;;;;1999.90;999.90;;;21.00;99.90;;;;;;5038500;28;20516;-80
2022/10/09 11:04:02;;;;;;;1999.90;999.90;;;20.20;99.90;;;;;;5056005;28;20040;-82
2022/10/09 11:06:48;;;;;;;1999.90;999.90;;;20.30;99.90;;;;;;5055782;28;20554;-80
2022/10/09 11:09:13;;;;;;;990.45;772.95;;;20.30;99.90;;;;;;5044542;28;20091;-81
2022/10/09 11:11:53;;;;;;;773.83;705.60;;;21.00;99.90;;;;;;5055124;28;20080;-80
2022/10/09 11:14:28;;;;;;;681.45;631.25;;;21.40;99.90;;;;;;5071499;28;20049;-87
2022/10/09 11:17:15;;;;;;;706.03;653.22;;;20.90;99.90;;;;;;5070846;28;20052;-80
2022/10/09 11:20:10;;;;;;;671.63;622.25;;;20.40;99.90;;;;;;5055720;28;20041;-81
2022/10/09 11:22:57;;;;;;;729.15;670.53;;;20.20;99.90;;;;;;5029931;28;20122;-80
2022/10/09 11:25:33;;;;;;;661.70;613.15;;;19.90;99.90;;;;;;5071365;28;20092;-81
2022/10/09 11:28:14;;;;;;;676.38;615.22;;;19.70;99.90;;;;;;5055333;28;20048;-80
2022/10/09 11:30:54;;;;;;;831.05;726.97;;;19.00;99.90;;;;;;5055546;28;20040;-80
2022/10/09 11:33:47;;;;;;;1957.93;983.03;;;18.60;99.90;;;;;;5055787;28;20120;-82
2022/10/09 11:36:23;;;;;;;1977.18;962.80;;;18.30;99.90;;;;;;5055491;28;20096;-80
2022/10/09 11:38:57;;;;;;;1999.90;999.90;;;18.00;99.90;;;;;;5037817;28;20049;-80
2022/10/09 11:41:25;;;;;;;1999.90;999.90;;;17.70;99.90;;;;;;5020384;28;20041;-81
2022/10/09 11:44:13;;;;;;;;;;;17.50;99.90;;;;;;5038335;28;20049;-81
2022/10/09 11:46:56;;;;;;;1999.90;999.90;;;17.40;99.90;;;;;;5055106;28;19956;-81
2022/10/09 11:49:41;;;;;;;1999.90;999.90;;;17.30;99.90;;;;;;5037096;28;20084;-80
2022/10/09 11:52:44;;;;;;;1999.90;999.90;;;17.30;99.90;;;;;;5055298;28;20053;-81
2022/10/09 11:55:17;;;;;;;1999.90;999.90;;;17.40;99.90;;;;;;5055220;28;20485;-81
2022/10/09 11:57:43;;;;;;;1679.30;970.40;;;18.10;99.90;;;;;;5036693;28;20048;-80
2022/10/09 12:00:10;;;;;;;1999.90;957.95;;;18.90;99.90;;;;;;5055101;28;20041;-80
2022/10/09 12:02:37;;;;;;;1999.90;979.50;;;18.70;99.90;;;;;;5053678;28;20057;-80
2022/10/09 12:05:42;;;;;;;1999.90;999.90;;;18.40;99.90;;;;;;5037259;28;20492;-80
2022/10/09 12:08:24;;;;;;;1999.90;999.90;;;17.80;99.90;;;;;;5043679;28;20049;-79
2022/10/09 12:10:52;;;;;;;1999.90;999.90;;;17.50;99.90;;;;;;5020971;28;20056;-80
2022/10/09 12:13:42;;;;;;;1999.90;968.90;;;17.30;99.90;;;;;;5054445;28;20091;-80
2022/10/09 12:16:27;;;;;;;1999.90;942.05;;;17.20;99.90;;;;;;5070227;28;20528;-80
2022/10/09 12:18:53;;;;;;;1999.90;906.00;;;17.10;99.90;;;;;;5070701;28;20424;-81
2022/10/09 12:21:29;;;;;;;1999.90;999.90;;;17.10;99.90;;;;;;5053451;28;20102;-80
2022/10/09 12:23:55;;;;;;;1999.90;999.90;;;17.00;99.90;;;;;;5055561;28;20049;-81
2022/10/09 12:26:23;;;;;;;1999.90;999.90;;;17.00;99.90;;;;;;5053980;28;20052;-80